sensor_id;sensor_type;location;lat;lon;timestamp;P1;durP1;ratioP1;P2;durP2;ratioP2
20008;SDS011;10165;42.662;23.260;2023-03-23T00:01:05;9.13;;;6.17;;
20008;SDS011;10165;42.662;23.260;2023-03-23T00:03:32;14.80;;;7.90;;
20008;SDS011;10165;42.662;23.260;2023-03-23T00:05:58;12.17;;;7.23;;
20008;SDS011;10165;42.662;23.260;2023-03-23T00:08:34;11.97;;;6.33;;
20008;SDS011;10165;42.662;23.260;2023-03-23T00:11:10;12.63;;;6.77;;
20008;SDS011;10165;42.662;23.260;2023-03-23T00:13:46;8.27;;;5.60;;
20008;SDS011;10165;42.662;23.260;2023-03-23T00:16:16;9.20;;;5.90;;
20008;SDS011;10165;42.662;23.260;2023-03-23T00:18:47;10.87;;;5.73;;
20008;SDS011;10165;42.662;23.260;2023-03-23T00:21:28;9.77;;;4.93;;
20008;SDS011;10165;42.662;23.260;2023-03-23T00:24:06;6.83;;;4.53;;
20008;SDS011;10165;42.662;23.260;2023-03-23T00:26:36;7.40;;;5.00;;
20008;SDS011;10165;42.662;23.260;2023-03-23T00:29:05;7.83;;;4.30;;
20008;SDS011;10165;42.662;23.260;2023-03-23T00:31:45;7.87;;;4.77;;
20008;SDS011;10165;42.662;23.260;2023-03-23T00:34:19;7.23;;;5.10;;
20008;SDS011;10165;42.662;23.260;2023-03-23T00:36:47;7.97;;;4.57;;
20008;SDS011;10165;42.662;23.260;2023-03-23T00:39:15;6.50;;;4.70;;
20008;SDS011;10165;42.662;23.260;2023-03-23T00:41:42;10.23;;;5.93;;
20008;SDS011;10165;42.662;23.260;2023-03-23T00:44:08;28.90;;;11.73;;
20008;SDS011;10165;42.662;23.260;2023-03-23T00:46:34;40.37;;;11.63;;
20008;SDS011;10165;42.662;23.260;2023-03-23T00:49:11;34.47;;;15.17;;
20008;SDS011;10165;42.662;23.260;2023-03-23T00:51:38;27.90;;;13.33;;
20008;SDS011;10165;42.662;23.260;2023-03-23T00:54:04;22.10;;;10.67;;
20008;SDS011;10165;42.662;23.260;2023-03-23T00:56:29;31.13;;;12.63;;
20008;SDS011;10165;42.662;23.260;2023-03-23T00:58:55;18.77;;;8.43;;
20008;SDS011;10165;42.662;23.260;2023-03-23T01:01:20;7.97;;;4.40;;
20008;SDS011;10165;42.662;23.260;2023-03-23T01:03:46;7.77;;;4.17;;
20008;SDS011;10165;42.662;23.260;2023-03-23T01:06:11;7.17;;;4.00;;
20008;SDS011;10165;42.662;23.260;2023-03-23T01:08:40;6.87;;;4.07;;
20008;SDS011;10165;42.662;23.260;2023-03-23T01:11:11;9.33;;;5.90;;
20008;SDS011;10165;42.662;23.260;2023-03-23T01:13:40;11.17;;;6.97;;
20008;SDS011;10165;42.662;23.260;2023-03-23T01:16:08;15.90;;;6.63;;
20008;SDS011;10165;42.662;23.260;2023-03-23T01:18:35;12.23;;;7.53;;
20008;SDS011;10165;42.662;23.260;2023-03-23T01:21:05;16.67;;;7.57;;
20008;SDS011;10165;42.662;23.260;2023-03-23T01:23:35;12.30;;;7.57;;
20008;SDS011;10165;42.662;23.260;2023-03-23T01:26:07;17.10;;;8.50;;
20008;SDS011;10165;42.662;23.260;2023-03-23T01:28:38;20.53;;;9.57;;
20008;SDS011;10165;42.662;23.260;2023-03-23T01:31:08;13.70;;;7.83;;
20008;SDS011;10165;42.662;23.260;2023-03-23T01:33:37;15.20;;;8.70;;
20008;SDS011;10165;42.662;23.260;2023-03-23T01:36:07;12.07;;;6.80;;
20008;SDS011;10165;42.662;23.260;2023-03-23T01:38:36;10.53;;;7.20;;
20008;SDS011;10165;42.662;23.260;2023-03-23T01:41:02;14.63;;;7.43;;
20008;SDS011;10165;42.662;23.260;2023-03-23T01:43:29;10.10;;;6.33;;
20008;SDS011;10165;42.662;23.260;2023-03-23T01:45:55;12.90;;;6.83;;
20008;SDS011;10165;42.662;23.260;2023-03-23T01:48:22;10.40;;;7.10;;
20008;SDS011;10165;42.662;23.260;2023-03-23T01:50:58;8.63;;;5.43;;
20008;SDS011;10165;42.662;23.260;2023-03-23T01:53:36;9.87;;;6.27;;
20008;SDS011;10165;42.662;23.260;2023-03-23T01:56:08;9.30;;;6.23;;
20008;SDS011;10165;42.662;23.260;2023-03-23T01:58:36;12.23;;;6.17;;
20008;SDS011;10165;42.662;23.260;2023-03-23T02:01:04;9.60;;;5.63;;
20008;SDS011;10165;42.662;23.260;2023-03-23T02:03:33;8.03;;;5.83;;
20008;SDS011;10165;42.662;23.260;2023-03-23T02:06:01;10.20;;;5.70;;
20008;SDS011;10165;42.662;23.260;2023-03-23T02:08:27;9.67;;;6.27;;
20008;SDS011;10165;42.662;23.260;2023-03-23T02:10:57;10.90;;;6.30;;
20008;SDS011;10165;42.662;23.260;2023-03-23T02:13:23;6.73;;;4.63;;
20008;SDS011;10165;42.662;23.260;2023-03-23T02:16:03;12.17;;;6.17;;
20008;SDS011;10165;42.662;23.260;2023-03-23T02:35:41;11.23;;;7.53;;
20008;SDS011;10165;42.662;23.260;2023-03-23T02:38:29;10.00;;;5.90;;
20008;SDS011;10165;42.662;23.260;2023-03-23T02:41:16;9.87;;;6.23;;
20008;SDS011;10165;42.662;23.260;2023-03-23T02:43:46;7.10;;;5.40;;
20008;SDS011;10165;42.662;23.260;2023-03-23T02:46:14;13.63;;;7.07;;
20008;SDS011;10165;42.662;23.260;2023-03-23T02:48:41;12.70;;;5.63;;
20008;SDS011;10165;42.662;23.260;2023-03-23T02:51:10;7.37;;;5.03;;
20008;SDS011;10165;42.662;23.260;2023-03-23T02:53:38;8.73;;;6.07;;
20008;SDS011;10165;42.662;23.260;2023-03-23T02:56:07;10.83;;;5.60;;
20008;SDS011;10165;42.662;23.260;2023-03-23T02:58:35;10.17;;;5.80;;
20008;SDS011;10165;42.662;23.260;2023-03-23T03:03:53;8.97;;;5.63;;
20008;SDS011;10165;42.662;23.260;2023-03-23T03:11:42;10.83;;;5.57;;
20008;SDS011;10165;42.662;23.260;2023-03-23T03:14:18;9.53;;;5.93;;
20008;SDS011;10165;42.662;23.260;2023-03-23T03:17:02;13.07;;;7.23;;
20008;SDS011;10165;42.662;23.260;2023-03-23T03:19:33;10.67;;;6.93;;
20008;SDS011;10165;42.662;23.260;2023-03-23T03:22:03;15.90;;;7.43;;
20008;SDS011;10165;42.662;23.260;2023-03-23T03:24:30;11.20;;;6.93;;
20008;SDS011;10165;42.662;23.260;2023-03-23T03:26:56;11.33;;;6.77;;
20008;SDS011;10165;42.662;23.260;2023-03-23T03:29:32;10.83;;;6.73;;
20008;SDS011;10165;42.662;23.260;2023-03-23T03:32:01;13.20;;;7.07;;
20008;SDS011;10165;42.662;23.260;2023-03-23T03:34:30;11.03;;;6.83;;
20008;SDS011;10165;42.662;23.260;2023-03-23T03:36:57;12.87;;;6.00;;
20008;SDS011;10165;42.662;23.260;2023-03-23T03:39:24;10.23;;;6.03;;
20008;SDS011;10165;42.662;23.260;2023-03-23T03:41:51;11.33;;;6.83;;
20008;SDS011;10165;42.662;23.260;2023-03-23T03:44:17;9.23;;;6.83;;
20008;SDS011;10165;42.662;23.260;2023-03-23T03:46:42;13.73;;;6.00;;
20008;SDS011;10165;42.662;23.260;2023-03-23T03:49:08;11.03;;;6.53;;
20008;SDS011;10165;42.662;23.260;2023-03-23T03:51:37;10.80;;;6.47;;
20008;SDS011;10165;42.662;23.260;2023-03-23T03:54:04;16.70;;;8.70;;
20008;SDS011;10165;42.662;23.260;2023-03-23T03:56:30;17.93;;;9.97;;
20008;SDS011;10165;42.662;23.260;2023-03-23T03:58:58;23.57;;;13.17;;
20008;SDS011;10165;42.662;23.260;2023-03-23T04:01:24;24.57;;;12.07;;
20008;SDS011;10165;42.662;23.260;2023-03-23T04:03:50;14.93;;;8.40;;
20008;SDS011;10165;42.662;23.260;2023-03-23T04:06:16;12.17;;;6.63;;
20008;SDS011;10165;42.662;23.260;2023-03-23T04:08:43;11.83;;;7.87;;
20008;SDS011;10165;42.662;23.260;2023-03-23T04:11:10;13.57;;;8.23;;
20008;SDS011;10165;42.662;23.260;2023-03-23T04:13:37;12.50;;;7.40;;
20008;SDS011;10165;42.662;23.260;2023-03-23T04:16:03;12.40;;;7.07;;
20008;SDS011;10165;42.662;23.260;2023-03-23T04:18:29;11.80;;;7.93;;
20008;SDS011;10165;42.662;23.260;2023-03-23T04:20:57;13.17;;;8.00;;
20008;SDS011;10165;42.662;23.260;2023-03-23T04:23:24;12.07;;;7.63;;
20008;SDS011;10165;42.662;23.260;2023-03-23T04:25:51;14.53;;;8.17;;
20008;SDS011;10165;42.662;23.260;2023-03-23T04:28:22;10.67;;;7.13;;
20008;SDS011;10165;42.662;23.260;2023-03-23T04:30:49;14.03;;;9.07;;
20008;SDS011;10165;42.662;23.260;2023-03-23T04:33:23;14.90;;;9.40;;
20008;SDS011;10165;42.662;23.260;2023-03-23T04:35:53;17.50;;;8.47;;
20008;SDS011;10165;42.662;23.260;2023-03-23T04:38:20;17.10;;;9.37;;
20008;SDS011;10165;42.662;23.260;2023-03-23T04:40:49;22.13;;;10.17;;
20008;SDS011;10165;42.662;23.260;2023-03-23T04:43:17;19.40;;;10.10;;
20008;SDS011;10165;42.662;23.260;2023-03-23T04:45:46;18.80;;;9.43;;
20008;SDS011;10165;42.662;23.260;2023-03-23T04:48:12;13.77;;;8.70;;
20008;SDS011;10165;42.662;23.260;2023-03-23T04:50:38;13.40;;;9.00;;
20008;SDS011;10165;42.662;23.260;2023-03-23T04:53:04;15.17;;;9.33;;
20008;SDS011;10165;42.662;23.260;2023-03-23T04:55:31;13.97;;;8.53;;
20008;SDS011;10165;42.662;23.260;2023-03-23T04:58:01;18.83;;;10.07;;
20008;SDS011;10165;42.662;23.260;2023-03-23T05:00:28;19.47;;;10.33;;
20008;SDS011;10165;42.662;23.260;2023-03-23T05:02:54;15.53;;;9.37;;
20008;SDS011;10165;42.662;23.260;2023-03-23T05:05:20;16.43;;;9.37;;
20008;SDS011;10165;42.662;23.260;2023-03-23T05:07:47;18.40;;;9.10;;
20008;SDS011;10165;42.662;23.260;2023-03-23T05:10:14;18.07;;;8.90;;
20008;SDS011;10165;42.662;23.260;2023-03-23T05:12:41;18.47;;;9.57;;
20008;SDS011;10165;42.662;23.260;2023-03-23T05:15:07;21.47;;;11.20;;
20008;SDS011;10165;42.662;23.260;2023-03-23T05:17:34;17.87;;;11.07;;
20008;SDS011;10165;42.662;23.260;2023-03-23T05:20:00;15.23;;;9.37;;
20008;SDS011;10165;42.662;23.260;2023-03-23T05:22:27;16.57;;;10.17;;
20008;SDS011;10165;42.662;23.260;2023-03-23T05:24:53;20.23;;;9.40;;
20008;SDS011;10165;42.662;23.260;2023-03-23T05:27:19;16.07;;;9.50;;
20008;SDS011;10165;42.662;23.260;2023-03-23T05:29:45;17.83;;;9.43;;
20008;SDS011;10165;42.662;23.260;2023-03-23T05:32:16;18.50;;;9.73;;
20008;SDS011;10165;42.662;23.260;2023-03-23T05:34:42;18.40;;;11.30;;
20008;SDS011;10165;42.662;23.260;2023-03-23T05:37:08;16.87;;;10.77;;
20008;SDS011;10165;42.662;23.260;2023-03-23T05:39:35;15.07;;;9.80;;
20008;SDS011;10165;42.662;23.260;2023-03-23T05:42:02;18.83;;;11.10;;
20008;SDS011;10165;42.662;23.260;2023-03-23T05:44:28;21.83;;;12.10;;
20008;SDS011;10165;42.662;23.260;2023-03-23T05:46:54;18.33;;;11.23;;
20008;SDS011;10165;42.662;23.260;2023-03-23T05:49:20;18.33;;;10.43;;
20008;SDS011;10165;42.662;23.260;2023-03-23T05:51:46;25.03;;;12.07;;
20008;SDS011;10165;42.662;23.260;2023-03-23T05:54:12;21.13;;;11.97;;
20008;SDS011;10165;42.662;23.260;2023-03-23T05:56:39;17.90;;;12.00;;
20008;SDS011;10165;42.662;23.260;2023-03-23T05:59:06;22.10;;;12.63;;
20008;SDS011;10165;42.662;23.260;2023-03-23T06:01:32;19.47;;;12.30;;
20008;SDS011;10165;42.662;23.260;2023-03-23T06:03:57;20.83;;;12.20;;
20008;SDS011;10165;42.662;23.260;2023-03-23T06:06:24;27.63;;;13.60;;
20008;SDS011;10165;42.662;23.260;2023-03-23T06:08:50;27.33;;;14.37;;
20008;SDS011;10165;42.662;23.260;2023-03-23T06:11:17;25.33;;;15.77;;
20008;SDS011;10165;42.662;23.260;2023-03-23T06:13:44;24.60;;;14.60;;
20008;SDS011;10165;42.662;23.260;2023-03-23T06:16:09;27.67;;;15.50;;
20008;SDS011;10165;42.662;23.260;2023-03-23T06:18:35;32.13;;;14.97;;
20008;SDS011;10165;42.662;23.260;2023-03-23T06:21:02;30.83;;;15.83;;
20008;SDS011;10165;42.662;23.260;2023-03-23T06:23:28;22.53;;;12.73;;
20008;SDS011;10165;42.662;23.260;2023-03-23T06:25:58;22.47;;;11.90;;
20008;SDS011;10165;42.662;23.260;2023-03-23T06:28:26;18.87;;;10.33;;
20008;SDS011;10165;42.662;23.260;2023-03-23T06:30:52;22.93;;;12.13;;
20008;SDS011;10165;42.662;23.260;2023-03-23T06:33:18;23.80;;;12.33;;
20008;SDS011;10165;42.662;23.260;2023-03-23T06:35:44;22.37;;;11.50;;
20008;SDS011;10165;42.662;23.260;2023-03-23T06:38:10;19.13;;;11.80;;
20008;SDS011;10165;42.662;23.260;2023-03-23T06:40:36;23.33;;;12.17;;
20008;SDS011;10165;42.662;23.260;2023-03-23T06:43:02;18.40;;;11.30;;
20008;SDS011;10165;42.662;23.260;2023-03-23T06:45:29;24.80;;;16.07;;
20008;SDS011;10165;42.662;23.260;2023-03-23T06:47:55;22.20;;;13.20;;
20008;SDS011;10165;42.662;23.260;2023-03-23T06:50:21;19.40;;;10.77;;
20008;SDS011;10165;42.662;23.260;2023-03-23T06:52:48;18.37;;;11.17;;
20008;SDS011;10165;42.662;23.260;2023-03-23T06:55:15;21.67;;;11.57;;
20008;SDS011;10165;42.662;23.260;2023-03-23T06:57:42;27.63;;;12.30;;
20008;SDS011;10165;42.662;23.260;2023-03-23T07:00:08;18.47;;;11.80;;
20008;SDS011;10165;42.662;23.260;2023-03-23T07:02:37;22.20;;;11.60;;
20008;SDS011;10165;42.662;23.260;2023-03-23T07:05:04;19.17;;;11.77;;
20008;SDS011;10165;42.662;23.260;2023-03-23T07:07:30;21.77;;;12.93;;
20008;SDS011;10165;42.662;23.260;2023-03-23T07:09:56;23.90;;;12.43;;
20008;SDS011;10165;42.662;23.260;2023-03-23T07:12:21;22.67;;;12.63;;
20008;SDS011;10165;42.662;23.260;2023-03-23T07:14:47;20.37;;;11.57;;
20008;SDS011;10165;42.662;23.260;2023-03-23T07:17:13;18.37;;;10.60;;
20008;SDS011;10165;42.662;23.260;2023-03-23T07:19:39;18.10;;;11.63;;
20008;SDS011;10165;42.662;23.260;2023-03-23T07:22:05;19.97;;;11.83;;
20008;SDS011;10165;42.662;23.260;2023-03-23T07:24:32;16.73;;;11.07;;
20008;SDS011;10165;42.662;23.260;2023-03-23T07:26:58;21.63;;;11.77;;
20008;SDS011;10165;42.662;23.260;2023-03-23T07:29:23;23.67;;;13.10;;
20008;SDS011;10165;42.662;23.260;2023-03-23T07:31:49;23.30;;;12.80;;
20008;SDS011;10165;42.662;23.260;2023-03-23T07:34:15;21.90;;;12.70;;
20008;SDS011;10165;42.662;23.260;2023-03-23T07:36:40;20.47;;;12.13;;
20008;SDS011;10165;42.662;23.260;2023-03-23T07:39:06;24.57;;;13.13;;
20008;SDS011;10165;42.662;23.260;2023-03-23T07:41:32;25.80;;;14.80;;
20008;SDS011;10165;42.662;23.260;2023-03-23T07:43:58;24.20;;;15.17;;
20008;SDS011;10165;42.662;23.260;2023-03-23T07:46:24;23.07;;;13.63;;
20008;SDS011;10165;42.662;23.260;2023-03-23T07:48:49;22.77;;;12.90;;
20008;SDS011;10165;42.662;23.260;2023-03-23T07:51:15;23.97;;;12.50;;
20008;SDS011;10165;42.662;23.260;2023-03-23T07:53:44;27.30;;;15.43;;
20008;SDS011;10165;42.662;23.260;2023-03-23T07:56:10;19.73;;;13.60;;
20008;SDS011;10165;42.662;23.260;2023-03-23T07:58:37;22.33;;;13.73;;
20008;SDS011;10165;42.662;23.260;2023-03-23T08:01:03;31.10;;;14.37;;
20008;SDS011;10165;42.662;23.260;2023-03-23T08:03:28;21.83;;;13.77;;
20008;SDS011;10165;42.662;23.260;2023-03-23T08:06:01;24.97;;;12.70;;
20008;SDS011;10165;42.662;23.260;2023-03-23T08:08:26;22.00;;;12.43;;
20008;SDS011;10165;42.662;23.260;2023-03-23T08:10:52;19.00;;;12.20;;
20008;SDS011;10165;42.662;23.260;2023-03-23T08:13:17;21.50;;;11.57;;
20008;SDS011;10165;42.662;23.260;2023-03-23T08:15:44;17.50;;;11.33;;
20008;SDS011;10165;42.662;23.260;2023-03-23T08:18:10;21.13;;;12.47;;
20008;SDS011;10165;42.662;23.260;2023-03-23T08:20:36;23.17;;;13.07;;
20008;SDS011;10165;42.662;23.260;2023-03-23T08:23:02;26.40;;;13.23;;
20008;SDS011;10165;42.662;23.260;2023-03-23T08:25:29;19.27;;;11.27;;
20008;SDS011;10165;42.662;23.260;2023-03-23T08:27:56;17.97;;;11.17;;
20008;SDS011;10165;42.662;23.260;2023-03-23T08:30:23;20.17;;;11.77;;
20008;SDS011;10165;42.662;23.260;2023-03-23T08:32:49;24.70;;;11.70;;
20008;SDS011;10165;42.662;23.260;2023-03-23T08:35:16;22.37;;;10.90;;
20008;SDS011;10165;42.662;23.260;2023-03-23T08:37:42;17.33;;;9.83;;
20008;SDS011;10165;42.662;23.260;2023-03-23T08:40:09;18.90;;;10.13;;
20008;SDS011;10165;42.662;23.260;2023-03-23T08:42:40;12.93;;;7.80;;
20008;SDS011;10165;42.662;23.260;2023-03-23T08:45:08;7.90;;;6.07;;
20008;SDS011;10165;42.662;23.260;2023-03-23T08:47:36;10.00;;;6.13;;
20008;SDS011;10165;42.662;23.260;2023-03-23T08:50:04;14.50;;;7.77;;
20008;SDS011;10165;42.662;23.260;2023-03-23T08:52:30;18.27;;;8.87;;
20008;SDS011;10165;42.662;23.260;2023-03-23T08:54:56;11.03;;;6.57;;
20008;SDS011;10165;42.662;23.260;2023-03-23T08:57:22;11.53;;;5.40;;
20008;SDS011;10165;42.662;23.260;2023-03-23T08:59:49;8.63;;;5.37;;
20008;SDS011;10165;42.662;23.260;2023-03-23T09:02:15;5.33;;;4.37;;
20008;SDS011;10165;42.662;23.260;2023-03-23T09:04:41;10.07;;;5.50;;
20008;SDS011;10165;42.662;23.260;2023-03-23T09:07:10;10.37;;;4.93;;
20008;SDS011;10165;42.662;23.260;2023-03-23T09:09:37;10.97;;;5.33;;
20008;SDS011;10165;42.662;23.260;2023-03-23T09:12:05;9.90;;;6.00;;
20008;SDS011;10165;42.662;23.260;2023-03-23T09:14:31;8.60;;;5.00;;
20008;SDS011;10165;42.662;23.260;2023-03-23T09:16:57;8.40;;;5.53;;
20008;SDS011;10165;42.662;23.260;2023-03-23T09:19:23;9.40;;;5.50;;
20008;SDS011;10165;42.662;23.260;2023-03-23T09:21:48;8.90;;;4.83;;
20008;SDS011;10165;42.662;23.260;2023-03-23T09:24:14;12.13;;;5.33;;
20008;SDS011;10165;42.662;23.260;2023-03-23T09:26:40;9.33;;;5.07;;
20008;SDS011;10165;42.662;23.260;2023-03-23T09:29:06;8.57;;;5.77;;
20008;SDS011;10165;42.662;23.260;2023-03-23T09:31:31;7.13;;;4.90;;
20008;SDS011;10165;42.662;23.260;2023-03-23T09:33:57;8.33;;;5.10;;
20008;SDS011;10165;42.662;23.260;2023-03-23T09:36:24;7.83;;;5.10;;
20008;SDS011;10165;42.662;23.260;2023-03-23T09:38:57;11.10;;;5.17;;
20008;SDS011;10165;42.662;23.260;2023-03-23T09:52:05;5.17;;;4.40;;
20008;SDS011;10165;42.662;23.260;2023-03-23T09:54:39;7.17;;;4.97;;
20008;SDS011;10165;42.662;23.260;2023-03-23T09:57:30;8.90;;;4.30;;
20008;SDS011;10165;42.662;23.260;2023-03-23T10:02:41;8.27;;;5.50;;
20008;SDS011;10165;42.662;23.260;2023-03-23T10:05:38;11.27;;;4.97;;
20008;SDS011;10165;42.662;23.260;2023-03-23T10:08:10;9.50;;;5.10;;
20008;SDS011;10165;42.662;23.260;2023-03-23T10:10:42;12.73;;;4.90;;
20008;SDS011;10165;42.662;23.260;2023-03-23T10:16:04;8.87;;;5.77;;
20008;SDS011;10165;42.662;23.260;2023-03-23T10:18:38;10.13;;;5.07;;
20008;SDS011;10165;42.662;23.260;2023-03-23T10:21:06;8.63;;;5.40;;
20008;SDS011;10165;42.662;23.260;2023-03-23T10:23:46;6.23;;;4.70;;
20008;SDS011;10165;42.662;23.260;2023-03-23T10:31:35;7.70;;;4.93;;
20008;SDS011;10165;42.662;23.260;2023-03-23T10:34:16;7.57;;;4.50;;
20008;SDS011;10165;42.662;23.260;2023-03-23T10:37:03;7.07;;;4.50;;
20008;SDS011;10165;42.662;23.260;2023-03-23T10:42:35;6.57;;;4.07;;
20008;SDS011;10165;42.662;23.260;2023-03-23T10:47:42;6.63;;;4.00;;
20008;SDS011;10165;42.662;23.260;2023-03-23T10:50:15;8.63;;;5.00;;
20008;SDS011;10165;42.662;23.260;2023-03-23T10:52:47;7.63;;;4.87;;
20008;SDS011;10165;42.662;23.260;2023-03-23T10:55:19;9.03;;;4.27;;
20008;SDS011;10165;42.662;23.260;2023-03-23T10:58:01;7.43;;;4.97;;
20008;SDS011;10165;42.662;23.260;2023-03-23T11:00:29;7.47;;;4.90;;
20008;SDS011;10165;42.662;23.260;2023-03-23T11:03:03;6.67;;;4.60;;
20008;SDS011;10165;42.662;23.260;2023-03-23T11:05:40;9.83;;;5.20;;
20008;SDS011;10165;42.662;23.260;2023-03-23T11:08:12;10.73;;;4.80;;
20008;SDS011;10165;42.662;23.260;2023-03-23T11:10:42;6.40;;;4.10;;
20008;SDS011;10165;42.662;23.260;2023-03-23T11:13:15;7.10;;;4.60;;
20008;SDS011;10165;42.662;23.260;2023-03-23T11:15:42;7.00;;;4.70;;
20008;SDS011;10165;42.662;23.260;2023-03-23T11:18:18;10.27;;;4.70;;
20008;SDS011;10165;42.662;23.260;2023-03-23T11:20:49;6.20;;;4.23;;
20008;SDS011;10165;42.662;23.260;2023-03-23T11:23:29;6.23;;;4.07;;
20008;SDS011;10165;42.662;23.260;2023-03-23T11:31:27;10.83;;;5.20;;
20008;SDS011;10165;42.662;23.260;2023-03-23T11:36:43;5.43;;;4.20;;
20008;SDS011;10165;42.662;23.260;2023-03-23T11:39:21;8.33;;;4.13;;
20008;SDS011;10165;42.662;23.260;2023-03-23T11:41:50;7.63;;;4.07;;
20008;SDS011;10165;42.662;23.260;2023-03-23T11:44:16;8.83;;;4.83;;
20008;SDS011;10165;42.662;23.260;2023-03-23T11:46:47;5.70;;;3.97;;
20008;SDS011;10165;42.662;23.260;2023-03-23T11:49:25;6.77;;;4.67;;
20008;SDS011;10165;42.662;23.260;2023-03-23T11:51:54;8.20;;;4.23;;
20008;SDS011;10165;42.662;23.260;2023-03-23T11:54:28;5.23;;;4.07;;
20008;SDS011;10165;42.662;23.260;2023-03-23T11:56:58;6.20;;;4.20;;
20008;SDS011;10165;42.662;23.260;2023-03-23T11:59:34;6.80;;;4.43;;
20008;SDS011;10165;42.662;23.260;2023-03-23T12:05:26;10.60;;;4.70;;
20008;SDS011;10165;42.662;23.260;2023-03-23T12:08:28;7.80;;;5.07;;
20008;SDS011;10165;42.662;23.260;2023-03-23T12:11:10;6.50;;;4.03;;
20008;SDS011;10165;42.662;23.260;2023-03-23T12:16:37;9.50;;;3.77;;
20008;SDS011;10165;42.662;23.260;2023-03-23T12:21:55;9.40;;;4.63;;
20008;SDS011;10165;42.662;23.260;2023-03-23T12:24:38;6.43;;;4.17;;
20008;SDS011;10165;42.662;23.260;2023-03-23T12:30:07;9.43;;;4.37;;
20008;SDS011;10165;42.662;23.260;2023-03-23T12:37:53;5.90;;;3.33;;
20008;SDS011;10165;42.662;23.260;2023-03-23T12:49:21;13.30;;;6.60;;
20008;SDS011;10165;42.662;23.260;2023-03-23T12:55:03;4.47;;;3.60;;
20008;SDS011;10165;42.662;23.260;2023-03-23T13:00:06;5.63;;;3.43;;
20008;SDS011;10165;42.662;23.260;2023-03-23T13:02:41;6.80;;;4.40;;
20008;SDS011;10165;42.662;23.260;2023-03-23T13:10:47;7.27;;;4.33;;
20008;SDS011;10165;42.662;23.260;2023-03-23T13:13:22;6.87;;;3.77;;
20008;SDS011;10165;42.662;23.260;2023-03-23T13:18:30;4.77;;;3.63;;
20008;SDS011;10165;42.662;23.260;2023-03-23T13:26:14;5.93;;;4.07;;
20008;SDS011;10165;42.662;23.260;2023-03-23T13:31:37;5.70;;;3.93;;
20008;SDS011;10165;42.662;23.260;2023-03-23T13:36:42;3.73;;;3.10;;
20008;SDS011;10165;42.662;23.260;2023-03-23T13:39:25;5.33;;;3.30;;
20008;SDS011;10165;42.662;23.260;2023-03-23T13:42:04;5.03;;;3.63;;
20008;SDS011;10165;42.662;23.260;2023-03-23T13:47:21;5.80;;;3.67;;
20008;SDS011;10165;42.662;23.260;2023-03-23T13:50:00;6.20;;;3.50;;
20008;SDS011;10165;42.662;23.260;2023-03-23T13:55:38;6.43;;;3.87;;
20008;SDS011;10165;42.662;23.260;2023-03-23T14:08:00;5.40;;;3.97;;
20008;SDS011;10165;42.662;23.260;2023-03-23T14:10:42;5.37;;;3.80;;
20008;SDS011;10165;42.662;23.260;2023-03-23T14:13:24;6.73;;;3.80;;
20008;SDS011;10165;42.662;23.260;2023-03-23T14:15:59;5.00;;;3.57;;
20008;SDS011;10165;42.662;23.260;2023-03-23T14:18:35;7.63;;;3.70;;
20008;SDS011;10165;42.662;23.260;2023-03-23T14:21:03;8.03;;;3.70;;
20008;SDS011;10165;42.662;23.260;2023-03-23T14:23:31;4.33;;;3.33;;
20008;SDS011;10165;42.662;23.260;2023-03-23T14:26:00;3.63;;;3.13;;
20008;SDS011;10165;42.662;23.260;2023-03-23T14:28:36;3.53;;;3.00;;
20008;SDS011;10165;42.662;23.260;2023-03-23T14:31:03;4.50;;;3.33;;
20008;SDS011;10165;42.662;23.260;2023-03-23T14:33:29;5.07;;;3.67;;
20008;SDS011;10165;42.662;23.260;2023-03-23T14:35:56;4.70;;;3.47;;
20008;SDS011;10165;42.662;23.260;2023-03-23T14:38:24;6.27;;;3.80;;
20008;SDS011;10165;42.662;23.260;2023-03-23T14:40:59;5.40;;;3.57;;
20008;SDS011;10165;42.662;23.260;2023-03-23T14:43:27;5.30;;;3.60;;
20008;SDS011;10165;42.662;23.260;2023-03-23T14:45:54;4.70;;;3.47;;
20008;SDS011;10165;42.662;23.260;2023-03-23T14:48:21;5.03;;;3.63;;
20008;SDS011;10165;42.662;23.260;2023-03-23T14:50:51;5.43;;;3.43;;
20008;SDS011;10165;42.662;23.260;2023-03-23T14:55:48;5.87;;;3.50;;
20008;SDS011;10165;42.662;23.260;2023-03-23T14:58:16;12.43;;;4.47;;
20008;SDS011;10165;42.662;23.260;2023-03-23T15:00:49;5.67;;;4.07;;
20008;SDS011;10165;42.662;23.260;2023-03-23T15:03:23;7.67;;;3.47;;
20008;SDS011;10165;42.662;23.260;2023-03-23T15:05:52;6.67;;;3.83;;
20008;SDS011;10165;42.662;23.260;2023-03-23T15:13:44;6.57;;;3.87;;
20008;SDS011;10165;42.662;23.260;2023-03-23T15:16:13;3.87;;;3.40;;
20008;SDS011;10165;42.662;23.260;2023-03-23T15:18:53;6.87;;;4.30;;
20008;SDS011;10165;42.662;23.260;2023-03-23T15:23:52;6.43;;;3.87;;
20008;SDS011;10165;42.662;23.260;2023-03-23T15:26:31;7.30;;;3.60;;
20008;SDS011;10165;42.662;23.260;2023-03-23T15:31:35;4.37;;;3.77;;
20008;SDS011;10165;42.662;23.260;2023-03-23T15:34:31;3.83;;;3.20;;
20008;SDS011;10165;42.662;23.260;2023-03-23T15:37:04;4.83;;;3.63;;
20008;SDS011;10165;42.662;23.260;2023-03-23T15:39:40;8.73;;;4.20;;
20008;SDS011;10165;42.662;23.260;2023-03-23T15:42:06;4.50;;;3.73;;
20008;SDS011;10165;42.662;23.260;2023-03-23T15:45:04;7.60;;;4.30;;
20008;SDS011;10165;42.662;23.260;2023-03-23T15:50:14;7.63;;;4.20;;
20008;SDS011;10165;42.662;23.260;2023-03-23T15:52:42;5.80;;;3.40;;
20008;SDS011;10165;42.662;23.260;2023-03-23T15:57:50;10.27;;;3.70;;
20008;SDS011;10165;42.662;23.260;2023-03-23T16:00:18;5.03;;;3.80;;
20008;SDS011;10165;42.662;23.260;2023-03-23T16:02:46;5.93;;;4.20;;
20008;SDS011;10165;42.662;23.260;2023-03-23T16:05:20;6.97;;;3.80;;
20008;SDS011;10165;42.662;23.260;2023-03-23T16:07:47;13.20;;;4.57;;
20008;SDS011;10165;42.662;23.260;2023-03-23T16:10:15;11.00;;;4.30;;
20008;SDS011;10165;42.662;23.260;2023-03-23T16:12:46;8.67;;;4.23;;
20008;SDS011;10165;42.662;23.260;2023-03-23T16:15:13;6.60;;;4.30;;
20008;SDS011;10165;42.662;23.260;2023-03-23T16:17:41;10.13;;;3.87;;
20008;SDS011;10165;42.662;23.260;2023-03-23T16:20:18;5.47;;;3.73;;
20008;SDS011;10165;42.662;23.260;2023-03-23T16:22:47;5.17;;;3.93;;
20008;SDS011;10165;42.662;23.260;2023-03-23T16:25:16;4.73;;;3.53;;
20008;SDS011;10165;42.662;23.260;2023-03-23T16:27:44;5.70;;;3.83;;
20008;SDS011;10165;42.662;23.260;2023-03-23T16:30:18;4.73;;;3.90;;
20008;SDS011;10165;42.662;23.260;2023-03-23T16:32:52;5.20;;;4.07;;
20008;SDS011;10165;42.662;23.260;2023-03-23T16:35:21;12.57;;;6.03;;
20008;SDS011;10165;42.662;23.260;2023-03-23T16:37:51;14.80;;;8.17;;
20008;SDS011;10165;42.662;23.260;2023-03-23T16:40:33;17.47;;;8.83;;
20008;SDS011;10165;42.662;23.260;2023-03-23T16:43:00;21.63;;;6.97;;
20008;SDS011;10165;42.662;23.260;2023-03-23T16:45:34;8.63;;;4.90;;
20008;SDS011;10165;42.662;23.260;2023-03-23T16:48:09;13.00;;;7.33;;
20008;SDS011;10165;42.662;23.260;2023-03-23T16:50:37;9.93;;;6.73;;
20008;SDS011;10165;42.662;23.260;2023-03-23T16:53:04;7.40;;;4.77;;
20008;SDS011;10165;42.662;23.260;2023-03-23T16:55:33;5.90;;;4.30;;
20008;SDS011;10165;42.662;23.260;2023-03-23T16:58:01;9.57;;;4.60;;
20008;SDS011;10165;42.662;23.260;2023-03-23T17:00:42;12.97;;;9.07;;
20008;SDS011;10165;42.662;23.260;2023-03-23T17:03:09;15.47;;;6.50;;